Time;durP1;ratioP1;P1;durP2;ratioP2;P2;SDS_P1;SDS_P2;PMS_P1;PMS_P2;Temp;Humidity;BMP_temperature;BMP_pressure;BME280_temperature;BME280_humidity;BME280_pressure;Samples;Min_cycle;Max_cycle;Signal;HPM_P1;HPM_P2
2021/12/16 00:04:40;;;;;;;56.73;34.30;;;10.60;99.90;;;;;;5013741;28;20482;-75
2021/12/16 00:09:56;;;;;;;63.57;36.17;;;10.60;99.90;;;;;;5014098;28;20454;-75
2021/12/16 00:31:58;;;;;;;60.90;36.43;;;10.60;99.90;;;;;;5012005;28;20431;-75
2021/12/16 00:34:29;;;;;;;57.40;36.47;;;10.50;99.90;;;;;;5017177;28;20431;-75
2021/12/16 00:36:56;;;;;;;60.10;38.30;;;10.50;99.90;;;;;;5017678;28;20435;-75
2021/12/16 00:39:26;;;;;;;59.03;35.53;;;10.50;99.90;;;;;;5016971;28;20467;-75
2021/12/16 00:41:59;;;;;;;57.37;33.80;;;10.60;99.90;;;;;;5016758;28;20795;-75
2021/12/16 00:44:59;;;;;;;61.80;36.77;;;10.60;99.90;;;;;;5017123;28;20431;-75
2021/12/16 00:47:34;;;;;;;54.93;33.97;;;10.60;99.90;;;;;;5016561;28;20451;-75
2021/12/16 00:50:20;;;;;;;56.33;35.73;;;10.70;99.90;;;;;;5017870;28;20474;-75
2021/12/16 00:55:41;;;;;;;56.50;35.80;;;10.70;99.90;;;;;;5017255;28;20398;-75
2021/12/16 00:58:08;;;;;;;60.13;36.03;;;10.70;99.90;;;;;;5016571;28;20968;-75
2021/12/16 01:00:35;;;;;;;61.07;34.90;;;10.60;99.90;;;;;;5018427;28;20892;-76
2021/12/16 01:03:14;;;;;;;60.90;35.50;;;10.60;99.90;;;;;;5016590;28;20451;-72
2021/12/16 01:06:23;;;;;;;62.87;37.10;;;10.60;99.90;;;;;;5016577;28;20489;-72
2021/12/16 01:36:38;;;;;;;64.57;34.90;;;10.50;99.90;;;;;;5015166;28;20964;-72
2021/12/16 01:39:53;;;;;;;52.93;33.87;;;10.50;99.90;;;;;;5016333;28;20467;-72
2021/12/16 01:47:56;;;;;;;61.03;36.20;;;10.60;99.90;;;;;;5015878;28;20767;-71
2021/12/16 01:50:29;;;;;;;64.77;37.53;;;10.60;99.90;;;;;;5015687;28;20529;-71
2021/12/16 01:55:42;;;;;;;62.27;36.33;;;10.60;99.90;;;;;;5015397;28;20491;-71
2021/12/16 01:58:15;;;;;;;57.77;36.37;;;10.50;99.90;;;;;;5015606;28;20428;-71
2021/12/16 02:00:56;;;;;;;55.37;35.50;;;10.60;99.90;;;;;;5015536;28;20467;-71
2021/12/16 02:03:36;;;;;;;60.13;36.40;;;10.50;99.90;;;;;;5015483;28;20466;-71
2021/12/16 02:06:09;;;;;;;59.13;34.37;;;10.60;99.90;;;;;;5015343;28;20466;-71
2021/12/16 02:08:39;;;;;;;55.70;35.40;;;10.50;99.90;;;;;;5015840;28;20435;-71
2021/12/16 02:11:24;;;;;;;54.20;32.80;;;10.50;99.90;;;;;;5015323;28;20547;-71
2021/12/16 02:28:09;;;;;;;57.63;35.77;;;10.50;99.90;;;;;;5015126;28;20476;-71
2021/12/16 02:33:49;;;;;;;56.80;36.30;;;10.50;99.90;;;;;;5014677;28;20916;-71
2021/12/16 02:36:26;;;;;;;64.13;36.97;;;10.50;99.90;;;;;;5014863;28;20494;-71
2021/12/16 02:38:57;;;;;;;54.23;34.93;;;10.60;99.90;;;;;;5014808;28;20563;-71
2021/12/16 02:41:26;;;;;;;53.10;36.10;;;10.60;99.90;;;;;;5014187;28;20431;-71
2021/12/16 02:44:14;;;;;;;63.10;36.60;;;10.50;99.90;;;;;;5015001;28;20440;-71
2021/12/16 02:49:28;;;;;;;59.27;35.20;;;10.50;99.90;;;;;;5014674;28;20438;-71
2021/12/16 02:51:57;;;;;;;57.00;36.30;;;10.50;99.90;;;;;;5014597;28;20451;-71
2021/12/16 02:54:25;;;;;;;55.93;35.53;;;10.50;99.90;;;;;;5014536;28;20842;-71
2021/12/16 02:56:52;;;;;;;59.27;35.00;;;10.50;99.90;;;;;;5014449;28;20459;-71
2021/12/16 02:59:24;;;;;;;60.87;35.27;;;10.50;99.90;;;;;;5014420;28;20470;-72
2021/12/16 03:01:55;;;;;;;58.67;36.20;;;10.50;99.90;;;;;;5014457;28;20444;-71
2021/12/16 03:04:24;;;;;;;58.50;34.83;;;10.50;99.90;;;;;;5014432;28;20450;-71
2021/12/16 03:06:55;;;;;;;58.67;35.50;;;10.50;99.90;;;;;;5014605;28;20493;-71
2021/12/16 03:09:43;;;;;;;54.00;35.10;;;10.50;99.90;;;;;;5014062;28;20476;-71
2021/12/16 03:12:37;;;;;;;62.57;36.60;;;10.50;99.90;;;;;;5014157;28;20440;-71
2021/12/16 03:15:12;;;;;;;55.00;35.03;;;10.50;99.90;;;;;;5013966;28;20902;-71
2021/12/16 03:17:47;;;;;;;61.23;36.00;;;10.40;99.90;;;;;;5014215;28;20442;-71
2021/12/16 03:20:23;;;;;;;59.43;36.13;;;10.40;99.90;;;;;;5013757;28;20482;-71
2021/12/16 03:23:00;;;;;;;61.33;37.87;;;10.40;99.90;;;;;;5013891;28;20494;-71
2021/12/16 03:25:40;;;;;;;60.83;37.77;;;10.40;99.90;;;;;;5014053;28;20499;-71
2021/12/16 03:28:40;;;;;;;58.87;38.00;;;10.30;99.90;;;;;;5014167;28;20490;-71
2021/12/16 03:31:26;;;;;;;63.53;36.77;;;10.40;99.90;;;;;;5014004;28;20431;-71
2021/12/16 03:36:48;;;;;;;61.53;37.40;;;10.40;99.90;;;;;;5012653;28;20427;-71
2021/12/16 03:39:16;;;;;;;62.90;37.10;;;10.40;99.90;;;;;;5013519;28;20979;-74
2021/12/16 03:41:43;;;;;;;57.23;36.27;;;10.40;99.90;;;;;;5013824;28;20439;-75
2021/12/16 03:44:15;;;;;;;54.23;36.33;;;10.40;99.90;;;;;;5013808;28;20448;-75
2021/12/16 03:46:45;;;;;;;56.80;35.27;;;10.40;99.90;;;;;;5013770;28;20515;-75
2021/12/16 03:49:17;;;;;;;59.47;36.47;;;10.40;99.90;;;;;;5013769;28;20478;-75
2021/12/16 03:51:47;;;;;;;63.87;36.90;;;10.40;99.90;;;;;;5013828;28;20535;-75
2021/12/16 03:54:18;;;;;;;59.83;37.80;;;10.30;99.90;;;;;;5013609;28;20443;-75
2021/12/16 03:56:46;;;;;;;55.20;37.10;;;10.30;99.90;;;;;;5013743;28;20435;-75
2021/12/16 03:59:18;;;;;;;62.53;37.57;;;10.30;99.90;;;;;;5013617;28;20471;-75
2021/12/16 04:01:45;;;;;;;62.43;37.43;;;10.30;99.90;;;;;;5013721;28;20427;-75
2021/12/16 04:04:12;;;;;;;59.53;37.40;;;10.30;99.90;;;;;;5013687;28;20452;-75
2021/12/16 04:06:39;;;;;;;63.33;37.00;;;10.20;99.90;;;;;;5013569;28;20474;-75
2021/12/16 04:09:09;;;;;;;58.70;34.73;;;10.30;99.90;;;;;;5013587;28;20468;-75
2021/12/16 04:11:41;;;;;;;61.50;37.70;;;10.30;99.90;;;;;;5014290;28;20431;-75
2021/12/16 04:14:12;;;;;;;60.93;38.20;;;10.20;99.90;;;;;;5013739;28;20431;-75
2021/12/16 04:16:45;;;;;;;62.87;38.10;;;10.30;99.90;;;;;;5013722;28;20427;-75
2021/12/16 04:19:13;;;;;;;61.37;36.40;;;10.30;99.90;;;;;;5013272;28;20480;-74
2021/12/16 04:21:43;;;;;;;60.73;35.90;;;10.20;99.90;;;;;;5013781;28;20470;-75
2021/12/16 04:24:11;;;;;;;63.00;36.70;;;10.20;99.90;;;;;;5013845;28;20454;-75
2021/12/16 04:26:39;;;;;;;65.87;38.97;;;10.20;99.90;;;;;;5013866;28;20468;-75
2021/12/16 04:29:06;;;;;;;60.23;38.33;;;10.20;99.90;;;;;;5013469;28;20474;-74
2021/12/16 04:31:33;;;;;;;60.60;36.20;;;10.20;99.90;;;;;;5013366;28;20470;-75
2021/12/16 04:34:02;;;;;;;58.27;40.00;;;10.20;99.90;;;;;;5013491;28;20451;-75
2021/12/16 04:36:29;;;;;;;69.40;41.37;;;10.20;99.90;;;;;;5013449;28;20443;-75
2021/12/16 04:38:56;;;;;;;67.20;39.60;;;10.20;99.90;;;;;;5013780;28;20477;-74
2021/12/16 04:41:25;;;;;;;61.30;36.10;;;10.20;99.90;;;;;;5013595;28;20431;-74
2021/12/16 04:43:54;;;;;;;55.70;36.03;;;10.20;99.90;;;;;;5013392;28;20454;-74
2021/12/16 04:46:23;;;;;;;59.70;38.47;;;10.20;99.90;;;;;;5013727;28;20479;-75
2021/12/16 04:48:53;;;;;;;60.60;38.13;;;10.10;99.90;;;;;;5014222;28;20472;-74
2021/12/16 04:51:23;;;;;;;62.13;36.90;;;10.10;99.90;;;;;;5014819;28;20432;-75
2021/12/16 04:53:50;;;;;;;54.97;36.17;;;10.10;99.90;;;;;;5014973;28;20454;-75
2021/12/16 04:56:20;;;;;;;59.90;39.27;;;10.10;99.90;;;;;;5014050;28;20440;-75
2021/12/16 04:58:50;;;;;;;60.80;38.10;;;10.10;99.90;;;;;;5013961;28;20463;-74
2021/12/16 05:01:17;;;;;;;63.50;39.77;;;10.10;99.90;;;;;;5013197;28;20502;-75
2021/12/16 05:03:44;;;;;;;66.30;38.27;;;10.00;99.90;;;;;;5013635;28;20443;-75
2021/12/16 05:06:11;;;;;;;62.47;36.63;;;10.00;99.90;;;;;;5015137;28;20844;-73
2021/12/16 05:08:40;;;;;;;65.20;40.13;;;10.00;99.90;;;;;;5016664;28;20451;-73
2021/12/16 05:11:11;;;;;;;57.53;37.40;;;10.00;99.90;;;;;;5016712;28;20567;-73
2021/12/16 05:13:38;;;;;;;60.40;37.87;;;10.00;99.90;;;;;;5016488;28;20431;-73
2021/12/16 05:16:06;;;;;;;65.93;39.20;;;10.00;99.90;;;;;;5015838;28;20450;-72
2021/12/16 05:18:36;;;;;;;59.10;37.43;;;10.00;99.90;;;;;;5016229;28;20489;-73
2021/12/16 05:21:06;;;;;;;59.23;36.97;;;9.90;99.90;;;;;;5016294;28;20463;-73
2021/12/16 05:26:20;;;;;;;64.03;38.10;;;10.00;99.90;;;;;;5015993;28;20959;-73
2021/12/16 05:28:52;;;;;;;51.87;34.77;;;9.90;99.90;;;;;;5016121;28;20475;-71
2021/12/16 05:31:22;;;;;;;56.40;35.47;;;9.90;99.90;;;;;;5016160;28;20436;-73
2021/12/16 05:33:50;;;;;;;62.73;37.17;;;9.90;99.90;;;;;;5016068;28;20447;-73
2021/12/16 05:36:17;;;;;;;63.77;38.13;;;9.90;99.90;;;;;;5016259;28;20447;-74
2021/12/16 05:38:44;;;;;;;55.17;35.70;;;9.90;99.90;;;;;;5016154;28;20447;-74
2021/12/16 05:41:14;;;;;;;51.63;33.43;;;9.90;99.90;;;;;;5016863;28;20940;-74
2021/12/16 05:43:44;;;;;;;56.80;34.70;;;9.90;99.90;;;;;;5015989;28;20428;-74
2021/12/16 05:46:12;;;;;;;54.80;35.47;;;9.90;99.90;;;;;;5015963;28;20486;-74
2021/12/16 05:48:42;;;;;;;54.53;35.40;;;9.90;99.90;;;;;;5015797;28;20443;-73
2021/12/16 05:51:11;;;;;;;56.17;35.50;;;9.90;99.90;;;;;;5015844;28;20832;-73
2021/12/16 05:53:39;;;;;;;63.37;38.40;;;9.80;99.90;;;;;;5015600;28;20940;-73
2021/12/16 05:56:06;;;;;;;56.00;36.83;;;9.80;99.90;;;;;;5015618;28;20447;-74
2021/12/16 05:58:36;;;;;;;55.00;34.83;;;9.70;99.90;;;;;;5015251;28;20806;-74
2021/12/16 06:01:06;;;;;;;56.30;35.70;;;9.70;99.90;;;;;;5015731;28;20542;-74
2021/12/16 06:03:34;;;;;;;67.33;37.27;;;9.70;99.90;;;;;;5015262;28;20834;-74
2021/12/16 06:06:01;;;;;;;58.53;36.80;;;9.70;99.90;;;;;;5015100;28;21019;-74
2021/12/16 06:08:29;;;;;;;56.53;35.30;;;9.70;99.90;;;;;;5015378;28;20452;-73
2021/12/16 06:13:43;;;;;;;49.83;32.80;;;9.70;99.90;;;;;;5015364;28;20408;-72
2021/12/16 06:27:21;;;;;;;42.80;27.97;;;9.70;99.90;;;;;;5014802;28;20551;-75
2021/12/16 06:29:49;;;;;;;40.30;26.83;;;9.80;99.90;;;;;;5014993;28;20478;-75
2021/12/16 06:32:18;;;;;;;35.07;24.63;;;9.80;99.90;;;;;;5014945;28;20446;-75
2021/12/16 06:34:45;;;;;;;39.47;24.43;;;9.70;99.90;;;;;;5014958;28;20451;-75
2021/12/16 06:37:13;;;;;;;34.80;24.33;;;9.70;99.90;;;;;;5014983;28;20451;-72
2021/12/16 06:39:40;;;;;;;38.97;24.70;;;9.70;99.90;;;;;;5014773;28;20467;-72
2021/12/16 06:42:09;;;;;;;39.50;26.37;;;9.70;99.90;;;;;;5014501;28;20945;-72
2021/12/16 06:44:41;;;;;;;33.40;24.80;;;9.70;99.90;;;;;;5014449;28;20443;-72
2021/12/16 06:47:12;;;;;;;32.10;23.90;;;9.70;99.90;;;;;;5014678;28;20475;-72
2021/12/16 06:49:43;;;;;;;25.53;19.03;;;9.60;99.90;;;;;;5014679;28;20942;-72
2021/12/16 06:52:14;;;;;;;27.33;20.00;;;9.60;99.90;;;;;;5014773;28;20537;-73
2021/12/16 06:54:54;;;;;;;25.13;18.33;;;9.50;99.90;;;;;;5014670;28;20524;-73
2021/12/16 06:57:26;;;;;;;20.70;17.17;;;9.50;99.90;;;;;;5014703;28;20800;-72
2021/12/16 06:59:57;;;;;;;26.97;19.60;;;9.50;99.90;;;;;;5014566;28;20474;-73
2021/12/16 07:02:46;;;;;;;32.10;21.37;;;9.50;99.90;;;;;;5014919;28;20800;-73
2021/12/16 07:05:15;;;;;;;26.73;20.27;;;9.40;99.90;;;;;;5014927;28;20443;-71
2021/12/16 07:07:43;;;;;;;30.87;21.23;;;9.40;99.90;;;;;;5014136;28;20479;-71
2021/12/16 07:10:12;;;;;;;29.73;19.80;;;9.40;99.90;;;;;;5014106;28;20463;-71
2021/12/16 07:12:46;;;;;;;26.27;20.17;;;9.40;99.90;;;;;;5014697;28;20435;-71
2021/12/16 07:15:14;;;;;;;26.70;21.50;;;9.30;99.90;;;;;;5013969;28;20940;-71
2021/12/16 07:17:43;;;;;;;25.57;18.30;;;9.30;99.90;;;;;;5014970;28;20443;-71
2021/12/16 07:20:12;;;;;;;25.50;19.60;;;9.30;99.90;;;;;;5013801;28;20479;-71
2021/12/16 07:22:40;;;;;;;28.47;19.90;;;9.30;99.90;;;;;;5013780;28;20450;-71
2021/12/16 07:25:08;;;;;;;25.10;17.43;;;9.20;99.90;;;;;;5014132;28;20799;-71
2021/12/16 07:27:36;;;;;;;23.80;18.00;;;9.20;99.90;;;;;;5015123;28;20479;-71
2021/12/16 07:30:05;;;;;;;23.93;17.10;;;9.20;99.90;;;;;;5014019;28;20533;-71
2021/12/16 07:32:32;;;;;;;21.13;14.17;;;9.20;99.90;;;;;;5014155;28;20459;-71
2021/12/16 07:34:59;;;;;;;22.23;17.60;;;9.10;99.90;;;;;;5014187;28;20452;-71
2021/12/16 07:37:25;;;;;;;25.50;17.03;;;9.10;99.90;;;;;;5014209;28;20455;-71
2021/12/16 07:39:53;;;;;;;21.97;17.73;;;9.10;99.90;;;;;;5013791;28;20475;-72
2021/12/16 07:42:26;;;;;;;20.77;16.27;;;9.10;99.90;;;;;;5014088;28;20447;-72
2021/12/16 07:44:53;;;;;;;20.10;16.33;;;9.10;99.90;;;;;;5014103;28;20439;-72
2021/12/16 07:47:21;;;;;;;20.03;15.23;;;9.00;99.90;;;;;;5014063;28;20475;-72
2021/12/16 07:49:48;;;;;;;30.77;18.87;;;9.00;99.90;;;;;;5013713;28;20470;-72
2021/12/16 07:52:21;;;;;;;26.17;19.20;;;9.00;99.90;;;;;;5013758;28;20447;-72
2021/12/16 07:54:48;;;;;;;22.63;17.80;;;9.00;99.90;;;;;;5013891;28;20431;-72
2021/12/16 07:57:16;;;;;;;22.37;17.97;;;9.00;99.90;;;;;;5013638;28;20451;-72
2021/12/16 07:59:43;;;;;;;28.17;20.17;;;9.00;99.90;;;;;;5013825;28;20468;-72
2021/12/16 08:02:11;;;;;;;27.30;19.83;;;9.10;99.90;;;;;;5013774;28;20826;-72
2021/12/16 08:04:42;;;;;;;26.67;19.83;;;9.10;99.90;;;;;;5014190;28;20431;-71
2021/12/16 08:07:14;;;;;;;28.93;19.23;;;9.10;99.90;;;;;;5013597;28;20463;-71
2021/12/16 08:09:42;;;;;;;30.40;21.87;;;9.10;99.90;;;;;;5013480;28;20482;-72
2021/12/16 08:12:12;;;;;;;31.00;22.77;;;9.10;99.90;;;;;;5013625;28;20450;-72
2021/12/16 08:14:41;;;;;;;28.60;20.87;;;9.10;99.90;;;;;;5013558;28;20447;-72
2021/12/16 08:17:08;;;;;;;28.70;19.90;;;9.20;99.90;;;;;;5013765;28;20447;-72
2021/12/16 08:19:37;;;;;;;28.10;20.23;;;9.20;99.90;;;;;;5013218;28;20899;-72
2021/12/16 08:22:05;;;;;;;24.67;19.00;;;9.20;99.90;;;;;;5013227;28;20451;-72
2021/12/16 08:24:32;;;;;;;31.10;18.57;;;9.20;99.90;;;;;;5013464;28;20458;-72
2021/12/16 08:26:59;;;;;;;27.90;18.30;;;9.20;99.90;;;;;;5013313;28;20506;-72
2021/12/16 08:29:26;;;;;;;22.50;15.63;;;9.20;99.90;;;;;;5013370;28;20466;-72
2021/12/16 08:31:55;;;;;;;24.57;16.93;;;9.20;99.90;;;;;;5013330;28;20459;-72
2021/12/16 08:34:22;;;;;;;29.43;19.20;;;9.20;99.90;;;;;;5013462;28;20505;-72
2021/12/16 08:36:49;;;;;;;27.00;18.00;;;9.20;99.90;;;;;;5013319;28;20501;-72
2021/12/16 08:39:16;;;;;;;32.13;20.00;;;9.20;99.90;;;;;;5013544;28;20475;-72
2021/12/16 08:41:49;;;;;;;26.37;18.83;;;9.10;99.90;;;;;;5016674;28;20447;-72
2021/12/16 08:44:17;;;;;;;30.43;19.67;;;9.20;99.90;;;;;;5017055;28;20435;-72
2021/12/16 08:46:48;;;;;;;38.60;23.83;;;9.10;99.90;;;;;;5016846;28;20648;-72
2021/12/16 08:49:17;;;;;;;33.27;20.23;;;9.10;99.90;;;;;;5017224;28;20473;-72
2021/12/16 08:51:46;;;;;;;30.07;21.83;;;9.10;99.90;;;;;;5016939;28;20439;-72
2021/12/16 08:54:13;;;;;;;32.30;22.33;;;9.10;99.90;;;;;;5016807;28;20459;-72
2021/12/16 08:56:40;;;;;;;27.13;19.37;;;9.10;99.90;;;;;;5016793;28;20447;-71
2021/12/16 08:59:08;;;;;;;26.33;20.50;;;9.10;99.90;;;;;;5016663;28;20471;-72
2021/12/16 09:01:39;;;;;;;29.83;20.20;;;9.20;99.90;;;;;;5016424;28;20436;-72
2021/12/16 09:04:06;;;;;;;22.20;17.80;;;9.20;99.90;;;;;;5017121;28;20444;-71
2021/12/16 09:06:35;;;;;;;20.83;17.70;;;9.20;99.90;;;;;;5016527;28;20447;-71
2021/12/16 09:09:02;;;;;;;22.50;18.70;;;9.20;99.90;;;;;;5016705;28;20463;-72
2021/12/16 09:11:32;;;;;;;21.43;17.70;;;9.20;99.90;;;;;;5016524;28;20455;-72
2021/12/16 09:14:01;;;;;;;41.33;30.17;;;9.30;99.90;;;;;;5016432;28;20451;-72
2021/12/16 09:16:32;;;;;;;51.87;33.50;;;9.20;99.90;;;;;;5016447;28;20447;-71
2021/12/16 09:18:59;;;;;;;54.03;33.70;;;9.20;99.90;;;;;;5016060;28;20483;-72
2021/12/16 09:21:29;;;;;;;64.03;35.87;;;9.30;99.90;;;;;;5015956;28;20443;-71
2021/12/16 09:23:59;;;;;;;52.87;33.13;;;9.30;99.90;;;;;;5016385;28;20428;-71
2021/12/16 09:26:26;;;;;;;58.93;36.93;;;9.40;99.90;;;;;;5016271;28;20451;-72
2021/12/16 09:28:54;;;;;;;56.17;37.20;;;9.40;99.90;;;;;;5016103;28;20494;-72
2021/12/16 09:31:25;;;;;;;53.90;36.60;;;9.50;99.90;;;;;;5016201;28;20450;-72
2021/12/16 09:33:55;;;;;;;56.33;38.23;;;9.60;99.90;;;;;;5016208;28;20435;-72
2021/12/16 09:36:25;;;;;;;63.20;40.83;;;9.60;99.90;;;;;;5015835;28;20946;-72
2021/12/16 09:38:53;;;;;;;67.40;40.73;;;9.70;99.90;;;;;;5016076;28;20502;-72
2021/12/16 09:41:22;;;;;;;65.50;41.80;;;9.90;99.90;;;;;;5015996;28;20466;-72
2021/12/16 09:43:51;;;;;;;66.60;39.77;;;10.00;99.90;;;;;;5015937;28;20451;-72
2021/12/16 09:46:20;;;;;;;61.83;40.60;;;10.20;99.90;;;;;;5015512;28;20964;-72
2021/12/16 09:48:47;;;;;;;67.87;42.60;;;10.30;99.90;;;;;;5015690;28;20487;-72
2021/12/16 09:51:22;;;;;;;61.93;42.47;;;10.50;99.90;;;;;;5015633;28;20451;-72
2021/12/16 09:53:51;;;;;;;62.53;41.90;;;10.60;99.90;;;;;;5016133;28;20435;-72
2021/12/16 09:56:19;;;;;;;64.47;41.93;;;10.70;99.90;;;;;;5015785;28;20442;-72
2021/12/16 09:58:49;;;;;;;62.83;39.40;;;10.80;99.90;;;;;;5016031;28;20953;-73
2021/12/16 10:01:17;;;;;;;61.40;41.20;;;10.80;99.90;;;;;;5015415;28;20807;-72
2021/12/16 10:03:46;;;;;;;53.77;38.00;;;10.90;99.90;;;;;;5015928;28;20451;-72
2021/12/16 10:06:14;;;;;;;53.70;38.23;;;10.90;99.90;;;;;;5015774;28;21011;-72
2021/12/16 10:08:41;;;;;;;56.63;40.20;;;10.90;99.90;;;;;;5015409;28;20486;-73
2021/12/16 10:11:08;;;;;;;49.70;36.13;;;11.00;99.90;;;;;;5015106;28;20494;-72
2021/12/16 10:13:39;;;;;;;56.77;38.67;;;11.10;99.90;;;;;;5015326;28;20448;-72
2021/12/16 10:18:52;;;;;;;52.13;39.13;;;11.30;99.90;;;;;;5015144;28;20474;-72
2021/12/16 10:21:23;;;;;;;51.50;37.17;;;11.30;99.90;;;;;;5015236;28;20443;-72
2021/12/16 10:23:50;;;;;;;52.67;37.57;;;11.40;99.90;;;;;;5015157;28;20519;-72
2021/12/16 10:26:21;;;;;;;53.97;38.60;;;11.40;99.90;;;;;;5015183;28;20542;-72
2021/12/16 10:28:50;;;;;;;54.40;36.47;;;11.40;99.90;;;;;;5015170;28;20470;-73
2021/12/16 10:31:22;;;;;;;54.40;37.37;;;11.50;99.90;;;;;;5015007;28;20470;-72
2021/12/16 10:33:52;;;;;;;52.37;37.00;;;11.50;99.90;;;;;;5015473;28;20437;-72
2021/12/16 10:36:23;;;;;;;48.27;35.03;;;11.50;99.90;;;;;;5014986;28;20526;-72
2021/12/16 10:38:53;;;;;;;57.50;39.93;;;11.60;99.90;;;;;;5014901;28;20424;-71
2021/12/16 10:41:23;;;;;;;51.13;36.33;;;11.70;99.90;;;;;;5014697;28;20447;-71
2021/12/16 10:43:54;;;;;;;49.90;37.47;;;11.80;99.90;;;;;;5015435;28;20905;-75
2021/12/16 10:46:25;;;;;;;49.00;36.30;;;11.80;99.90;;;;;;5015565;28;20515;-75
2021/12/16 10:48:53;;;;;;;50.50;36.30;;;11.90;99.90;;;;;;5014717;28;20471;-75
2021/12/16 10:51:27;;;;;;;50.80;36.73;;;11.90;99.90;;;;;;5016045;28;20442;-76
2021/12/16 10:54:08;;;;;;;49.00;36.33;;;12.00;99.90;;;;;;5014781;28;20428;-76
2021/12/16 10:56:42;;;;;;;50.50;37.40;;;12.10;99.90;;;;;;5014677;28;20458;-76
2021/12/16 10:59:14;;;;;;;50.53;36.90;;;12.10;99.90;;;;;;5014687;28;20470;-75
2021/12/16 11:02:03;;;;;;;51.67;37.50;;;12.20;99.90;;;;;;5014916;28;20535;-76
2021/12/16 11:04:34;;;;;;;53.40;37.10;;;12.30;99.90;;;;;;5014310;28;20443;-76
2021/12/16 11:07:06;;;;;;;50.10;36.80;;;12.40;99.90;;;;;;5014468;28;20432;-75
2021/12/16 11:09:47;;;;;;;47.70;36.67;;;12.40;99.90;;;;;;5014528;28;20467;-74
2021/12/16 11:12:28;;;;;;;48.77;37.47;;;12.50;99.90;;;;;;5014320;28;20485;-74
2021/12/16 11:14:58;;;;;;;47.20;36.30;;;12.50;99.90;;;;;;5014336;28;20436;-73
2021/12/16 11:17:32;;;;;;;46.00;34.90;;;12.50;99.90;;;;;;5014283;28;20428;-74
2021/12/16 11:20:02;;;;;;;53.50;37.07;;;12.50;99.90;;;;;;5013826;28;20479;-74
2021/12/16 11:22:32;;;;;;;53.83;35.37;;;12.50;99.90;;;;;;5014267;28;20446;-74
2021/12/16 11:25:16;;;;;;;48.50;36.37;;;12.50;99.90;;;;;;5014217;28;20428;-74
2021/12/16 11:27:44;;;;;;;55.40;38.17;;;12.50;99.90;;;;;;5013860;28;20969;-74
2021/12/16 11:30:30;;;;;;;49.17;35.40;;;12.50;99.90;;;;;;5014117;28;20467;-74
2021/12/16 11:33:11;;;;;;;49.73;38.40;;;12.60;99.90;;;;;;5014015;28;20423;-74
2021/12/16 11:35:43;;;;;;;46.70;35.10;;;12.60;99.90;;;;;;5014016;28;20431;-74
2021/12/16 11:38:16;;;;;;;47.97;36.70;;;12.60;99.90;;;;;;5014009;28;20439;-76
2021/12/16 11:40:53;;;;;;;50.93;37.13;;;12.50;99.90;;;;;;5013836;28;20471;-75
2021/12/16 11:43:35;;;;;;;55.53;38.67;;;12.50;99.90;;;;;;5013852;28;20442;-76
2021/12/16 11:46:03;;;;;;;51.00;38.80;;;12.50;99.90;;;;;;5013882;28;20431;-76
2021/12/16 11:48:35;;;;;;;59.90;40.90;;;12.50;99.90;;;;;;5013925;28;20482;-76
2021/12/16 11:51:13;;;;;;;61.47;44.10;;;12.50;99.90;;;;;;5013904;28;20436;-76
2021/12/16 11:53:45;;;;;;;59.23;41.87;;;12.50;99.90;;;;;;5013860;28;20786;-75
2021/12/16 11:56:12;;;;;;;67.10;44.27;;;12.50;99.90;;;;;;5013443;28;20905;-76
2021/12/16 11:58:42;;;;;;;60.70;41.63;;;12.60;99.90;;;;;;5014075;28;20443;-73
2021/12/16 12:01:19;;;;;;;57.77;42.33;;;12.50;99.90;;;;;;5013729;28;20530;-73
2021/12/16 12:03:48;;;;;;;56.60;41.77;;;12.60;99.90;;;;;;5013465;28;20941;-73
2021/12/16 12:06:27;;;;;;;50.07;38.97;;;12.60;99.90;;;;;;5013632;28;20451;-73
2021/12/16 12:08:56;;;;;;;47.17;36.97;;;12.60;99.90;;;;;;5013280;28;20493;-73
2021/12/16 12:11:26;;;;;;;52.00;40.17;;;12.70;99.90;;;;;;5013649;28;20450;-73
2021/12/16 12:13:57;;;;;;;52.20;37.40;;;12.80;99.90;;;;;;5013988;28;20827;-73
2021/12/16 12:16:28;;;;;;;49.60;36.00;;;12.90;99.90;;;;;;5017797;28;20435;-73
2021/12/16 12:18:58;;;;;;;50.93;37.10;;;12.90;99.90;;;;;;5017397;28;20511;-73
2021/12/16 12:21:33;;;;;;;50.17;36.80;;;13.00;99.90;;;;;;5017306;28;20968;-73
2021/12/16 12:24:04;;;;;;;49.63;37.70;;;13.00;99.90;;;;;;5017025;28;20485;-73
2021/12/16 12:26:33;;;;;;;50.63;39.13;;;13.10;99.90;;;;;;5017338;28;20465;-73
2021/12/16 12:29:04;;;;;;;53.23;41.30;;;13.10;99.90;;;;;;5017277;28;20487;-73
2021/12/16 12:31:33;;;;;;;50.67;37.73;;;13.10;99.90;;;;;;5016912;28;20431;-73
2021/12/16 12:34:01;;;;;;;53.00;38.13;;;13.20;99.90;;;;;;5017138;28;20443;-73
2021/12/16 12:36:28;;;;;;;47.70;35.57;;;13.30;99.90;;;;;;5016981;28;20933;-73
2021/12/16 12:38:56;;;;;;;46.57;34.93;;;13.60;99.90;;;;;;5017112;28;20467;-74
2021/12/16 12:41:23;;;;;;;43.57;36.83;;;13.80;99.90;;;;;;5016990;28;20445;-73
2021/12/16 12:43:51;;;;;;;51.40;35.40;;;14.00;99.90;;;;;;5016868;28;20447;-73
2021/12/16 12:46:18;;;;;;;44.80;36.80;;;14.20;98.70;;;;;;5016952;28;20448;-73
2021/12/16 12:48:49;;;;;;;50.03;40.30;;;14.40;98.40;;;;;;5016699;28;20491;-73
2021/12/16 12:51:18;;;;;;;47.83;41.67;;;14.50;98.30;;;;;;5016939;28;20435;-73
2021/12/16 12:53:50;;;;;;;52.67;40.97;;;14.80;97.90;;;;;;5016919;28;20458;-73
2021/12/16 12:56:20;;;;;;;41.57;34.87;;;15.10;97.40;;;;;;5017097;28;20432;-73
2021/12/16 12:58:59;;;;;;;42.90;33.37;;;15.40;96.70;;;;;;5016670;28;20454;-73
2021/12/16 13:01:42;;;;;;;49.07;36.17;;;15.70;95.50;;;;;;5016741;28;20517;-73
2021/12/16 13:04:12;;;;;;;50.53;40.67;;;15.70;94.30;;;;;;5017615;28;20443;-74
2021/12/16 13:07:00;;;;;;;58.97;51.40;;;15.70;94.30;;;;;;5017153;28;20435;-73
2021/12/16 13:09:32;;;;;;;63.37;52.93;;;15.70;94.10;;;;;;5016545;28;20482;-73
2021/12/16 13:12:00;;;;;;;62.90;51.10;;;15.70;93.70;;;;;;5016297;28;20428;-74
2021/12/16 13:14:44;;;;;;;59.13;47.47;;;15.70;93.80;;;;;;5016476;28;20451;-74
2021/12/16 13:17:41;;;;;;;46.30;37.80;;;15.70;93.90;;;;;;5016549;28;20801;-74
2021/12/16 13:28:39;;;;;;;56.73;46.33;;;15.40;93.80;;;;;;5016310;28;20864;-73
2021/12/16 13:31:26;;;;;;;53.97;45.80;;;15.30;94.20;;;;;;5015907;28;20526;-73
2021/12/16 13:33:56;;;;;;;51.77;44.90;;;15.20;94.50;;;;;;5015877;28;20917;-74
2021/12/16 13:36:42;;;;;;;54.40;43.03;;;15.20;94.70;;;;;;5015721;28;20900;-74
2021/12/16 13:39:13;;;;;;;46.80;39.43;;;15.10;94.70;;;;;;5015821;28;20965;-74
2021/12/16 13:41:57;;;;;;;99.07;82.07;;;15.00;94.80;;;;;;5016052;28;20431;-74
2021/12/16 13:44:51;;;;;;;84.97;70.43;;;14.80;95.00;;;;;;5016217;28;20440;-74
2021/12/16 13:47:31;;;;;;;87.90;68.53;;;14.70;95.30;;;;;;5015979;28;20439;-74
2021/12/16 14:02:00;;;;;;;73.43;51.80;;;14.40;96.60;;;;;;4985218;28;20462;-74
2021/12/16 14:04:53;;;;;;;58.70;43.70;;;14.30;96.70;;;;;;5015680;28;20447;-74
2021/12/16 14:07:52;;;;;;;58.23;44.27;;;14.20;96.90;;;;;;5016042;28;20479;-74
2021/12/16 14:10:22;;;;;;;61.13;43.37;;;14.10;97.20;;;;;;5015445;28;20604;-74
2021/12/16 14:16:13;;;;;;;52.30;39.63;;;13.90;97.70;;;;;;5007907;28;20450;-73
2021/12/16 14:42:09;;;;;;;61.07;38.70;;;13.20;99.60;;;;;;5014679;28;20409;-73
2021/12/16 14:47:52;;;;;;;55.77;39.17;;;13.10;99.90;;;;;;5014846;28;20399;-73
2021/12/16 14:50:20;;;;;;;56.17;37.80;;;13.00;99.90;;;;;;5014217;28;20493;-73
2021/12/16 14:52:47;;;;;;;62.10;39.87;;;12.90;99.90;;;;;;5015062;28;20454;-73
2021/12/16 14:55:19;;;;;;;60.00;39.50;;;12.90;99.90;;;;;;5014684;28;20447;-73
2021/12/16 14:57:48;;;;;;;60.57;39.70;;;12.80;99.90;;;;;;5014606;28;20460;-73
2021/12/16 15:00:29;;;;;;;60.50;39.17;;;12.80;99.90;;;;;;5132608;27;20572;-70
2021/12/16 15:03:01;;;;;;;56.70;38.17;;;12.70;99.90;;;;;;5131943;27;20463;-70
2021/12/16 15:05:34;;;;;;;60.07;39.00;;;12.70;99.90;;;;;;5131911;27;20434;-70
2021/12/16 15:08:07;;;;;;;52.20;35.20;;;12.70;99.90;;;;;;5131955;27;20476;-70
2021/12/16 15:10:34;;;;;;;63.13;39.43;;;12.70;99.90;;;;;;5131637;27;20430;-70
2021/12/16 15:13:07;;;;;;;56.37;37.17;;;12.60;99.90;;;;;;5131797;27;20458;-70
2021/12/16 15:15:43;;;;;;;58.00;38.40;;;12.60;99.90;;;;;;5131725;27;20432;-70
2021/12/16 15:38:22;;;;;;;64.27;39.60;;;12.30;99.90;;;;;;5088098;28;20439;-70
2021/12/16 15:42:43;;;;;;;67.53;43.97;;;12.30;99.90;;;;;;5088046;28;20490;-69
2021/12/16 15:43:51;;;;;;;63.27;41.60;;;12.20;99.90;;;;;;5119502;27;20444;-70
2021/12/16 15:46:19;;;;;;;70.27;41.93;;;12.20;99.90;;;;;;5130600;27;20446;-70
2021/12/16 15:48:55;;;;;;;76.83;43.10;;;12.20;99.90;;;;;;5130839;27;20429;-69
2021/12/16 15:51:37;;;;;;;84.07;47.93;;;12.20;99.90;;;;;;5130795;27;20469;-70